createdAt,value
2023-04-13T00:00:55.891Z,9.11
2023-04-13T00:03:24.672Z,9.12
2023-04-13T00:05:53.164Z,9.13
2023-04-13T00:08:24.302Z,9.12
2023-04-13T00:10:57.445Z,9.11
2023-04-13T00:13:25.293Z,9.08
2023-04-13T00:15:55.949Z,9.05
2023-04-13T00:18:25.421Z,9.05
2023-04-13T00:20:54.101Z,9.06
2023-04-13T00:23:22.462Z,9.07
2023-04-13T00:25:56.372Z,9.08
2023-04-13T00:28:25.359Z,9.10
2023-04-13T00:30:53.295Z,9.12
2023-04-13T00:33:22.182Z,9.14
2023-04-13T00:35:50.062Z,9.15
2023-04-13T00:38:18.262Z,9.16
2023-04-13T00:40:48.578Z,9.17
2023-04-13T00:43:16.630Z,9.17
2023-04-13T00:45:45.166Z,9.18
2023-04-13T00:48:19.674Z,9.18
2023-04-13T00:50:48.510Z,9.18
2023-04-13T00:53:17.365Z,9.18
2023-04-13T00:55:45.344Z,9.17
2023-04-13T00:58:14.442Z,9.16
2023-04-13T01:00:46.158Z,9.15
2023-04-13T01:03:15.996Z,9.13
2023-04-13T01:05:55.230Z,9.10
2023-04-13T01:08:37.018Z,9.07
2023-04-13T01:11:19.700Z,9.05
2023-04-13T01:14:02.253Z,9.04
2023-04-13T01:16:33.248Z,9.03
2023-04-13T01:19:04.090Z,9.00
2023-04-13T01:21:32.023Z,9.01
2023-04-13T01:24:17.007Z,9.01
2023-04-13T01:27:07.282Z,9.02
2023-04-13T01:29:36.508Z,9.02
2023-04-13T01:32:05.380Z,9.00
2023-04-13T01:34:33.653Z,8.97
2023-04-13T01:37:04.648Z,8.97
2023-04-13T01:39:33.338Z,8.98
2023-04-13T01:42:23.492Z,8.99
2023-04-13T01:44:54.512Z,9.00
2023-04-13T01:47:23.098Z,9.01
2023-04-13T01:50:00.625Z,9.00
2023-04-13T01:52:35.952Z,9.00
2023-04-13T01:55:06.077Z,9.00
2023-04-13T01:57:36.220Z,9.01
2023-04-13T02:00:11.033Z,8.99
2023-04-13T02:02:42.230Z,8.99
2023-04-13T02:05:11.523Z,9.00
2023-04-13T02:07:44.778Z,9.00
2023-04-13T02:10:13.672Z,9.02
2023-04-13T02:12:42.818Z,9.01
2023-04-13T02:15:12.002Z,9.02
2023-04-13T02:17:42.512Z,9.03
2023-04-13T02:20:12.103Z,9.04
2023-04-13T02:22:48.138Z,9.03
2023-04-13T02:25:17.340Z,9.02
2023-04-13T02:27:45.642Z,9.02
2023-04-13T02:30:13.581Z,8.99
2023-04-13T02:33:00.405Z,8.96
2023-04-13T02:35:28.937Z,8.94
2023-04-13T02:37:58.232Z,8.92
2023-04-13T02:40:28.515Z,8.90
2023-04-13T02:43:00.005Z,8.90
2023-04-13T02:45:28.601Z,8.90
2023-04-13T02:48:06.215Z,8.89
2023-04-13T02:50:35.073Z,8.88
2023-04-13T02:53:07.913Z,8.87
2023-04-13T02:55:36.614Z,8.86
2023-04-13T02:58:08.631Z,8.85
2023-04-13T03:00:37.537Z,8.87
2023-04-13T03:03:20.980Z,8.88
2023-04-13T03:05:51.410Z,8.90
2023-04-13T03:08:23.836Z,8.92
2023-04-13T03:11:01.094Z,8.93
2023-04-13T03:13:30.741Z,8.94
2023-04-13T03:16:00.574Z,8.94
2023-04-13T03:18:29.199Z,8.95
2023-04-13T03:20:57.103Z,8.96
2023-04-13T03:23:28.071Z,8.95
2023-04-13T03:25:58.789Z,8.95
2023-04-13T03:28:27.277Z,8.94
2023-04-13T03:30:55.603Z,8.91
2023-04-13T03:33:25.672Z,8.89
2023-04-13T03:35:53.657Z,8.88
2023-04-13T03:38:26.872Z,8.89
2023-04-13T03:40:55.049Z,8.92
2023-04-13T03:43:23.006Z,8.95
2023-04-13T03:45:59.690Z,8.97
2023-04-13T03:48:28.052Z,8.96
2023-04-13T03:50:56.314Z,8.95
2023-04-13T03:53:28.392Z,8.94
2023-04-13T03:55:56.896Z,8.92
2023-04-13T03:58:24.721Z,8.90
2023-04-13T04:00:53.042Z,8.89
2023-04-13T04:03:32.351Z,8.91
2023-04-13T04:06:04.808Z,8.93
2023-04-13T04:08:35.864Z,8.95
2023-04-13T04:11:06.774Z,8.98
2023-04-13T04:13:35.379Z,9.01
2023-04-13T04:16:11.783Z,9.04
2023-04-13T04:18:44.036Z,9.07
2023-04-13T04:21:15.731Z,9.08
2023-04-13T04:23:45.612Z,9.10
2023-04-13T04:26:14.544Z,9.12
2023-04-13T04:28:46.981Z,9.14
2023-04-13T04:31:21.673Z,9.15
2023-04-13T04:33:53.305Z,9.16
2023-04-13T04:36:22.115Z,9.18
2023-04-13T04:38:58.296Z,9.21
2023-04-13T04:41:26.972Z,9.23
2023-04-13T04:43:56.986Z,9.24
2023-04-13T04:46:26.004Z,9.24
2023-04-13T04:49:00.869Z,9.24
2023-04-13T04:51:31.438Z,9.24
2023-04-13T04:54:02.149Z,9.24
2023-04-13T04:56:30.159Z,9.26
2023-04-13T04:59:00.798Z,9.29
2023-04-13T05:01:36.265Z,9.31
2023-04-13T05:04:09.621Z,9.32
2023-04-13T05:06:42.182Z,9.34
2023-04-13T05:09:14.836Z,9.36
2023-04-13T05:11:47.640Z,9.36
2023-04-13T05:14:16.142Z,9.36
2023-04-13T05:16:45.966Z,9.39
2023-04-13T05:19:35.371Z,9.41
2023-04-13T05:22:13.067Z,9.42
2023-04-13T05:24:46.369Z,9.44
2023-04-13T05:27:16.026Z,9.46
2023-04-13T05:29:47.902Z,9.48
2023-04-13T05:32:18.601Z,9.48
2023-04-13T05:34:48.203Z,9.50
2023-04-13T05:37:25.059Z,9.53
2023-04-13T05:39:53.693Z,9.58
2023-04-13T05:42:25.004Z,9.63
2023-04-13T05:44:52.969Z,9.67
2023-04-13T05:47:21.978Z,9.69
2023-04-13T05:49:50.968Z,9.72
2023-04-13T05:52:22.074Z,9.73
2023-04-13T05:54:50.418Z,9.75
2023-04-13T05:57:22.940Z,9.77
2023-04-13T05:59:53.641Z,9.79
2023-04-13T06:02:26.804Z,9.80
2023-04-13T06:04:56.536Z,9.83
2023-04-13T06:07:26.143Z,9.86
2023-04-13T06:09:54.232Z,9.89
2023-04-13T06:12:32.156Z,9.94
2023-04-13T06:15:01.912Z,10.00
2023-04-13T06:17:30.879Z,10.04
2023-04-13T06:19:58.843Z,10.06
2023-04-13T06:22:30.870Z,10.09
2023-04-13T06:24:59.026Z,10.13
2023-04-13T06:27:28.295Z,10.15
2023-04-13T06:29:58.200Z,10.16
2023-04-13T06:32:26.422Z,10.18
2023-04-13T06:34:54.437Z,10.22
2023-04-13T06:37:22.440Z,10.25
2023-04-13T06:39:51.831Z,10.30
2023-04-13T06:42:21.302Z,10.32
2023-04-13T06:45:10.761Z,10.33
2023-04-13T06:47:43.344Z,10.36
2023-04-13T06:50:14.221Z,10.40
2023-04-13T06:52:43.590Z,10.43
2023-04-13T06:55:11.674Z,10.44
2023-04-13T06:57:41.912Z,10.43
2023-04-13T07:00:22.306Z,10.42
2023-04-13T07:02:58.348Z,10.41
2023-04-13T07:05:26.602Z,10.38
2023-04-13T07:07:56.223Z,10.39
2023-04-13T07:10:24.326Z,10.43
2023-04-13T07:12:53.236Z,10.48
2023-04-13T07:15:22.717Z,10.54
2023-04-13T07:17:52.476Z,10.60
2023-04-13T07:20:22.240Z,10.68
2023-04-13T07:22:51.508Z,10.72
2023-04-13T07:25:19.396Z,10.78
2023-04-13T07:27:49.061Z,10.89
2023-04-13T07:30:19.417Z,11.02
2023-04-13T07:32:49.128Z,11.12
2023-04-13T07:35:17.360Z,11.26
2023-04-13T07:37:51.407Z,11.39
2023-04-13T07:40:21.592Z,11.52
2023-04-13T07:42:50.704Z,11.63
2023-04-13T07:45:20.657Z,11.71
2023-04-13T07:47:49.121Z,11.80
2023-04-13T07:50:18.092Z,11.87
2023-04-13T07:52:48.637Z,11.90
2023-04-13T07:55:18.539Z,11.92
2023-04-13T07:57:49.804Z,11.95
2023-04-13T08:00:20.596Z,11.97
2023-04-13T08:02:49.257Z,12.01
2023-04-13T08:05:24.063Z,12.05
2023-04-13T08:07:53.794Z,12.03
2023-04-13T08:10:22.258Z,12.02
2023-04-13T08:12:50.232Z,12.05
2023-04-13T08:15:19.343Z,12.06
2023-04-13T08:17:49.086Z,12.04
2023-04-13T08:20:21.193Z,12.03
2023-04-13T08:22:55.282Z,12.05
2023-04-13T08:25:23.596Z,12.08
2023-04-13T08:27:51.452Z,12.11
2023-04-13T08:30:21.412Z,12.16
2023-04-13T08:32:54.892Z,12.24
2023-04-13T08:35:24.148Z,12.31
2023-04-13T08:37:53.934Z,12.37
2023-04-13T08:40:23.139Z,12.40
2023-04-13T08:42:52.110Z,12.43
2023-04-13T08:45:19.940Z,12.44
2023-04-13T08:47:51.419Z,12.46
2023-04-13T08:50:21.263Z,12.51
2023-04-13T08:52:54.177Z,12.53
2023-04-13T08:55:23.532Z,12.52
2023-04-13T08:57:52.018Z,12.49
2023-04-13T09:00:21.973Z,12.44
2023-04-13T09:03:04.808Z,12.38
2023-04-13T09:05:37.097Z,12.34
2023-04-13T09:08:08.157Z,12.29
2023-04-13T09:10:40.999Z,12.28
2023-04-13T09:13:09.513Z,12.28
2023-04-13T09:15:37.808Z,12.26
2023-04-13T09:18:30.108Z,12.28
2023-04-13T09:21:08.178Z,12.29
2023-04-13T09:23:37.321Z,12.31
2023-04-13T09:26:08.925Z,12.33
2023-04-13T09:28:47.329Z,12.34
2023-04-13T09:31:15.836Z,12.35
2023-04-13T09:33:46.082Z,12.38
2023-04-13T09:36:17.440Z,12.40
2023-04-13T09:38:54.069Z,12.42
2023-04-13T09:41:37.868Z,12.45
2023-04-13T09:44:28.744Z,12.45
2023-04-13T09:46:58.031Z,12.46
2023-04-13T09:49:26.714Z,12.52
2023-04-13T09:51:54.639Z,12.55
2023-04-13T09:54:23.044Z,12.56
2023-04-13T09:56:58.046Z,12.56
2023-04-13T09:59:28.858Z,12.56
2023-04-13T10:01:57.124Z,12.57
2023-04-13T10:04:25.866Z,12.63
2023-04-13T10:06:53.741Z,12.68
2023-04-13T10:09:22.385Z,12.70
2023-04-13T10:11:50.746Z,12.70
2023-04-13T10:14:21.981Z,12.71
2023-04-13T10:16:59.099Z,12.72
2023-04-13T10:19:28.471Z,12.75
2023-04-13T10:21:56.296Z,12.79
2023-04-13T10:24:30.849Z,12.82
2023-04-13T10:27:01.884Z,12.85
2023-04-13T10:29:30.671Z,12.90
2023-04-13T10:32:03.613Z,12.90
2023-04-13T10:34:34.418Z,12.95
2023-04-13T10:37:06.855Z,13.00
2023-04-13T10:39:36.193Z,13.05
2023-04-13T10:42:08.387Z,13.08
2023-04-13T10:44:49.268Z,13.11
2023-04-13T10:47:18.319Z,13.12
2023-04-13T10:49:47.700Z,13.09
2023-04-13T10:52:16.256Z,13.10
2023-04-13T10:54:45.110Z,13.08
2023-04-13T10:57:15.059Z,13.08
2023-04-13T10:59:58.733Z,13.08
2023-04-13T11:02:30.623Z,13.09
2023-04-13T11:04:58.678Z,13.10
2023-04-13T11:07:26.938Z,13.10
2023-04-13T11:10:03.281Z,13.07
2023-04-13T11:12:32.438Z,13.01
2023-04-13T11:15:03.919Z,12.95
2023-04-13T11:17:33.053Z,12.94
2023-04-13T11:20:02.052Z,12.92
2023-04-13T11:22:35.676Z,12.92
2023-04-13T11:25:10.024Z,12.94
2023-04-13T11:27:38.170Z,12.93
2023-04-13T11:30:09.279Z,12.90
2023-04-13T11:32:41.468Z,12.88
2023-04-13T11:35:10.379Z,12.88
2023-04-13T11:37:40.240Z,12.86
2023-04-13T11:40:15.045Z,12.85
2023-04-13T11:42:45.974Z,12.83
2023-04-13T11:45:14.929Z,12.79
2023-04-13T11:47:43.793Z,12.78
2023-04-13T11:50:15.586Z,12.79
2023-04-13T11:52:44.322Z,12.79
2023-04-13T11:55:22.411Z,12.77
2023-04-13T11:57:53.110Z,12.74
2023-04-13T12:00:26.655Z,12.72
2023-04-13T12:05:30.074Z,12.69
2023-04-13T12:07:59.298Z,12.68
2023-04-13T12:10:40.572Z,12.68
2023-04-13T12:16:05.432Z,12.66
2023-04-13T12:18:49.576Z,12.62
2023-04-13T12:21:20.597Z,12.62
2023-04-13T12:23:55.043Z,12.60
2023-04-13T12:29:08.572Z,12.55
2023-04-13T12:31:41.793Z,12.49
2023-04-13T12:34:09.748Z,12.42
2023-04-13T12:36:37.758Z,12.39
2023-04-13T12:39:06.797Z,12.36
2023-04-13T12:41:34.787Z,12.31
2023-04-13T12:44:02.572Z,12.24
2023-04-13T12:46:30.972Z,12.17
2023-04-13T12:48:59.033Z,12.12
2023-04-13T12:51:28.160Z,12.08
2023-04-13T12:53:56.397Z,12.07
2023-04-13T12:56:24.758Z,12.04
2023-04-13T12:58:52.840Z,12.01
2023-04-13T13:01:22.008Z,11.91
2023-04-13T13:03:51.210Z,11.80
2023-04-13T13:06:19.377Z,11.69
2023-04-13T13:08:47.425Z,11.66
2023-04-13T13:11:16.095Z,11.65
2023-04-13T13:13:44.595Z,11.58
2023-04-13T13:16:14.084Z,11.53
2023-04-13T13:18:51.277Z,11.49
2023-04-13T13:21:21.774Z,11.46
2023-04-13T13:23:49.601Z,11.43
2023-04-13T13:28:50.700Z,11.42
2023-04-13T13:31:19.192Z,11.41
2023-04-13T13:33:47.950Z,11.41
2023-04-13T13:36:16.169Z,11.41
2023-04-13T13:38:44.031Z,11.43
2023-04-13T13:41:12.558Z,11.45
2023-04-13T13:43:42.544Z,11.48
2023-04-13T13:46:10.594Z,11.51
2023-04-13T13:48:38.890Z,11.53
2023-04-13T13:51:27.757Z,11.56
2023-04-13T13:53:56.117Z,11.60
2023-04-13T13:56:24.181Z,11.62
2023-04-13T13:58:52.511Z,11.62
2023-04-13T14:01:20.935Z,11.59
2023-04-13T14:03:49.873Z,11.55
2023-04-13T14:06:17.930Z,11.51
2023-04-13T14:08:46.665Z,11.48
2023-04-13T14:11:15.174Z,11.46
2023-04-13T14:13:43.028Z,11.47
2023-04-13T14:16:11.322Z,11.46
2023-04-13T14:18:41.291Z,11.43
2023-04-13T14:21:09.633Z,11.41
2023-04-13T14:23:40.491Z,11.43
2023-04-13T14:26:08.648Z,11.42
2023-04-13T14:28:36.957Z,11.41
2023-04-13T14:31:09.809Z,11.39
2023-04-13T14:33:39.379Z,11.35
2023-04-13T14:36:08.828Z,11.31
2023-04-13T14:38:36.766Z,11.26
2023-04-13T14:41:04.858Z,11.22
2023-04-13T14:43:33.116Z,11.20
2023-04-13T14:46:04.072Z,11.20
2023-04-13T14:48:32.878Z,11.19
2023-04-13T14:51:00.935Z,11.18
2023-04-13T14:53:30.356Z,11.18
2023-04-13T14:55:58.559Z,11.16
2023-04-13T14:58:26.629Z,11.12
2023-04-13T15:00:55.576Z,11.09
2023-04-13T15:03:28.972Z,11.08
2023-04-13T15:06:03.959Z,11.06
2023-04-13T15:08:34.096Z,11.04
2023-04-13T15:11:04.471Z,11.04
2023-04-13T15:13:33.066Z,11.02
2023-04-13T15:16:01.463Z,10.98
2023-04-13T15:18:29.870Z,10.99
2023-04-13T15:21:03.407Z,10.97
2023-04-13T15:23:32.765Z,10.94
2023-04-13T15:26:03.661Z,10.94
2023-04-13T15:28:32.819Z,10.95
2023-04-13T15:31:01.215Z,10.92
2023-04-13T15:33:29.286Z,10.92
2023-04-13T15:35:57.875Z,10.91
2023-04-13T15:38:27.107Z,10.92
2023-04-13T15:40:55.305Z,10.93
2023-04-13T15:43:23.344Z,10.94
2023-04-13T15:45:51.199Z,10.97
2023-04-13T15:48:20.644Z,10.98
2023-04-13T15:50:56.727Z,10.99
2023-04-13T15:53:25.774Z,10.98
2023-04-13T15:55:55.483Z,10.98
2023-04-13T15:58:23.375Z,10.97
2023-04-13T16:01:00.611Z,10.95
2023-04-13T16:03:31.109Z,10.92
2023-04-13T16:05:59.165Z,10.92
2023-04-13T16:08:27.144Z,10.91
2023-04-13T16:10:55.558Z,10.89
2023-04-13T16:13:24.928Z,10.87
2023-04-13T16:15:58.770Z,10.86
2023-04-13T16:18:30.110Z,10.84
2023-04-13T16:20:59.129Z,10.80
2023-04-13T16:23:29.658Z,10.78
2023-04-13T16:25:58.479Z,10.76
2023-04-13T16:28:28.025Z,10.74
2023-04-13T16:30:56.563Z,10.71
2023-04-13T16:33:24.939Z,10.69
2023-04-13T16:35:52.896Z,10.67
2023-04-13T16:38:20.901Z,10.66
2023-04-13T16:40:49.158Z,10.62
2023-04-13T16:43:17.053Z,10.61
2023-04-13T16:45:45.179Z,10.63
2023-04-13T16:48:13.271Z,10.64
2023-04-13T16:50:41.328Z,10.65
2023-04-13T16:53:11.734Z,10.67
2023-04-13T16:55:41.235Z,10.67
2023-04-13T16:58:10.400Z,10.66
2023-04-13T17:00:40.365Z,10.65
2023-04-13T17:03:08.322Z,10.63
2023-04-13T17:05:36.964Z,10.63
2023-04-13T17:08:08.541Z,10.61
2023-04-13T17:10:37.134Z,10.60
2023-04-13T17:13:05.202Z,10.60
2023-04-13T17:15:33.150Z,10.61
2023-04-13T17:18:04.086Z,10.63
2023-04-13T17:20:32.547Z,10.63
2023-04-13T17:23:00.586Z,10.63
2023-04-13T17:25:29.919Z,10.61
2023-04-13T17:28:04.077Z,10.60
2023-04-13T17:30:31.949Z,10.59
2023-04-13T17:33:00.737Z,10.59
2023-04-13T17:35:30.702Z,10.58
2023-04-13T17:37:58.536Z,10.59
2023-04-13T17:40:31.946Z,10.59
2023-04-13T17:42:59.844Z,10.57
2023-04-13T17:45:27.933Z,10.53
2023-04-13T17:47:55.970Z,10.51
2023-04-13T17:50:23.937Z,10.49
2023-04-13T17:52:54.309Z,10.49
2023-04-13T17:55:23.729Z,10.47
2023-04-13T17:57:51.589Z,10.45
2023-04-13T18:00:20.378Z,10.44
2023-04-13T18:02:58.371Z,10.43
2023-04-13T18:05:27.761Z,10.40
2023-04-13T18:07:55.834Z,10.37
2023-04-13T18:10:24.761Z,10.35
2023-04-13T18:12:53.577Z,10.34
2023-04-13T18:15:21.854Z,10.35
2023-04-13T18:17:49.888Z,10.36
2023-04-13T18:20:22.159Z,10.33
2023-04-13T18:22:50.522Z,10.32
2023-04-13T18:25:19.170Z,10.31
2023-04-13T18:27:47.342Z,10.29
2023-04-13T18:30:15.745Z,10.26
2023-04-13T18:32:44.448Z,10.24
2023-04-13T18:35:13.043Z,10.21
2023-04-13T18:37:43.579Z,10.20
2023-04-13T18:40:13.273Z,10.20
2023-04-13T18:42:42.055Z,10.19
2023-04-13T18:45:11.256Z,10.19
2023-04-13T18:47:40.815Z,10.19
2023-04-13T18:50:09.185Z,10.19
2023-04-13T18:52:38.453Z,10.17
2023-04-13T18:55:06.808Z,10.15
2023-04-13T18:57:38.911Z,10.15
2023-04-13T19:00:10.322Z,10.15
2023-04-13T19:02:42.464Z,10.16
2023-04-13T19:05:12.752Z,10.16
2023-04-13T19:07:44.744Z,10.16
2023-04-13T19:10:12.955Z,10.14
2023-04-13T19:12:41.413Z,10.11
2023-04-13T19:15:13.964Z,10.09
2023-04-13T19:17:43.983Z,10.08
2023-04-13T19:20:13.320Z,10.07
2023-04-13T19:22:41.683Z,10.07
2023-04-13T19:25:14.423Z,10.05
2023-04-13T19:27:44.591Z,10.02
2023-04-13T19:30:13.307Z,9.99
2023-04-13T19:32:44.336Z,10.00
2023-04-13T19:35:12.989Z,10.02
2023-04-13T19:37:41.568Z,10.02
2023-04-13T19:40:16.935Z,10.02
2023-04-13T19:42:45.594Z,10.01
2023-04-13T19:45:13.571Z,10.00
2023-04-13T19:47:42.536Z,9.99
2023-04-13T19:50:11.406Z,9.96
2023-04-13T19:52:39.655Z,9.92
2023-04-13T19:55:10.470Z,9.89
2023-04-13T19:57:42.183Z,9.89
2023-04-13T20:00:17.402Z,9.88
2023-04-13T20:02:50.785Z,9.87
2023-04-13T20:05:19.656Z,9.87
2023-04-13T20:07:47.437Z,9.86
2023-04-13T20:10:15.690Z,9.88
2023-04-13T20:12:45.723Z,9.87
2023-04-13T20:15:13.788Z,9.86
2023-04-13T20:17:42.812Z,9.84
2023-04-13T20:20:11.172Z,9.83
2023-04-13T20:22:39.233Z,9.83
2023-04-13T20:25:07.907Z,9.81
2023-04-13T20:27:37.790Z,9.80
2023-04-13T20:30:06.347Z,9.79
2023-04-13T20:32:35.875Z,9.78
2023-04-13T20:35:06.223Z,9.80
2023-04-13T20:37:34.081Z,9.80
2023-04-13T20:40:02.852Z,9.79
2023-04-13T20:42:31.953Z,9.78
2023-04-13T20:45:00.245Z,9.77
2023-04-13T20:47:28.647Z,9.76
2023-04-13T20:49:59.896Z,9.76
2023-04-13T20:52:31.789Z,9.75
2023-04-13T20:55:00.142Z,9.76
2023-04-13T20:57:29.637Z,9.74
2023-04-13T20:59:58.333Z,9.74
2023-04-13T21:02:29.613Z,9.71
2023-04-13T21:04:57.717Z,9.70
2023-04-13T21:07:25.557Z,9.71
2023-04-13T21:09:57.123Z,9.70
2023-04-13T21:12:26.294Z,9.68
2023-04-13T21:14:54.319Z,9.66
2023-04-13T21:17:22.796Z,9.65
2023-04-13T21:20:01.259Z,9.61
2023-04-13T21:22:29.865Z,9.59
2023-04-13T21:24:57.664Z,9.60
2023-04-13T21:27:25.902Z,9.59
2023-04-13T21:29:53.738Z,9.59
2023-04-13T21:32:26.483Z,9.59
2023-04-13T21:34:55.869Z,9.59
2023-04-13T21:37:23.857Z,9.58
2023-04-13T21:39:51.766Z,9.58
2023-04-13T21:42:21.414Z,9.59
2023-04-13T21:44:51.109Z,9.61
2023-04-13T21:47:19.313Z,9.61
2023-04-13T21:49:47.291Z,9.61
2023-04-13T21:52:19.070Z,9.60
2023-04-13T21:54:47.952Z,9.58
2023-04-13T21:57:17.069Z,9.57
2023-04-13T21:59:46.017Z,9.57
2023-04-13T22:02:13.966Z,9.57
2023-04-13T22:04:41.905Z,9.55
2023-04-13T22:07:10.218Z,9.54
2023-04-13T22:09:39.001Z,9.54
2023-04-13T22:12:07.283Z,9.54
2023-04-13T22:14:35.166Z,9.51
2023-04-13T22:17:05.835Z,9.48
2023-04-13T22:19:33.785Z,9.48
2023-04-13T22:22:01.664Z,9.48
2023-04-13T22:24:33.666Z,9.47
2023-04-13T22:27:03.408Z,9.46
2023-04-13T22:29:31.505Z,9.46
2023-04-13T22:32:00.156Z,9.44
2023-04-13T22:34:29.344Z,9.42
2023-04-13T22:36:57.223Z,9.39
2023-04-13T22:39:31.130Z,9.36
2023-04-13T22:41:59.186Z,9.35
2023-04-13T22:44:34.954Z,9.33
2023-04-13T22:47:03.530Z,9.32
2023-04-13T22:49:31.392Z,9.32
2023-04-13T22:52:00.545Z,9.31
2023-04-13T22:54:28.348Z,9.30
2023-04-13T22:56:56.174Z,9.28
2023-04-13T22:59:27.441Z,9.27
2023-04-13T23:01:55.653Z,9.27
2023-04-13T23:04:23.844Z,9.26
2023-04-13T23:06:51.947Z,9.23
2023-04-13T23:09:22.053Z,9.20
2023-04-13T23:11:49.874Z,9.17
2023-04-13T23:14:18.610Z,9.16
2023-04-13T23:16:51.393Z,9.14
2023-04-13T23:19:19.852Z,9.14
2023-04-13T23:21:48.000Z,9.13
2023-04-13T23:24:22.364Z,9.12
2023-04-13T23:26:50.272Z,9.08
2023-04-13T23:29:19.921Z,9.08
2023-04-13T23:31:58.888Z,9.06
2023-04-13T23:34:27.049Z,9.04
2023-04-13T23:36:54.900Z,9.01
2023-04-13T23:39:23.792Z,8.98
2023-04-13T23:41:51.690Z,8.97
2023-04-13T23:44:19.590Z,8.97
2023-04-13T23:46:47.337Z,8.97
2023-04-13T23:49:15.224Z,8.97
2023-04-13T23:51:43.803Z,8.97
2023-04-13T23:54:12.008Z,8.96
2023-04-13T23:56:40.218Z,8.96
2023-04-13T23:59:09.399Z,8.95
